Time;durP1;ratioP1;P1;durP2;ratioP2;P2;SDS_P1;SDS_P2;PMS_P1;PMS_P2;Temp;Humidity;BMP_temperature;BMP_pressure;BME280_temperature;BME280_humidity;BME280_pressure;Samples;Min_cycle;Max_cycle;Signal;HPM_P1;HPM_P2
2022/08/03 00:00:04;;;;;;;4.73;2.37;;;;;;;;;;4934825;28;20200;-37
2022/08/03 00:02:30;;;;;;;6.50;2.63;;;;;;;;;;4931604;28;20183;-36
2022/08/03 00:04:56;;;;;;;4.23;2.67;;;;;;;;;;4937776;28;20703;-36
2022/08/03 00:07:22;;;;;;;4.50;2.60;;;;;;;;;;4931113;28;20190;-36
2022/08/03 00:09:49;;;;;;;5.07;2.70;;;;;;;;;;4931388;28;20666;-37
2022/08/03 00:12:15;;;;;;;4.77;2.50;;;;;;;;;;4934631;28;20179;-36
2022/08/03 00:14:41;;;;;;;5.13;2.50;;;;;;;;;;4936007;28;20890;-36
2022/08/03 00:17:08;;;;;;;7.13;3.10;;;;;;;;;;4930840;28;20253;-37
2022/08/03 00:19:34;;;;;;;7.30;2.77;;;;;;;;;;4934118;28;20965;-36
2022/08/03 00:22:00;;;;;;;6.00;2.50;;;;;;;;;;4934829;28;20290;-36
2022/08/03 00:24:26;;;;;;;4.73;2.97;;;;;;;;;;4930459;28;20179;-36
2022/08/03 00:26:52;;;;;;;2.90;2.63;;;;;;;;;;4930064;28;20213;-36
2022/08/03 00:29:18;;;;;;;6.37;2.90;;;;;;;;;;4935466;28;20194;-36
2022/08/03 00:31:44;;;;;;;3.70;2.50;;;;;;;;;;4931666;28;20586;-36
2022/08/03 00:34:10;;;;;;;3.17;2.60;;;;;;;;;;4929053;28;20175;-36
2022/08/03 00:36:36;;;;;;;4.20;2.63;;;;;;;;;;4934955;28;20727;-36
2022/08/03 00:39:03;;;;;;;4.77;2.80;;;;;;;;;;4963462;28;20828;-36
2022/08/03 00:41:29;;;;;;;7.03;2.43;;;;;;;;;;4930803;28;20522;-36
2022/08/03 00:43:55;;;;;;;4.50;3.00;;;;;;;;;;4933234;28;20178;-36
2022/08/03 00:46:21;;;;;;;5.00;2.50;;;;;;;;;;4931866;28;20187;-36
2022/08/03 00:48:48;;;;;;;4.27;2.70;;;;;;;;;;4934190;28;20171;-36
2022/08/03 00:51:14;;;;;;;4.90;2.80;;;;;;;;;;4928516;28;20630;-36
2022/08/03 00:53:40;;;;;;;2.97;2.37;;;;;;;;;;4931597;28;20416;-36
2022/08/03 00:56:06;;;;;;;3.53;2.50;;;;;;;;;;4930448;28;20189;-36
2022/08/03 00:58:32;;;;;;;7.00;2.90;;;;;;;;;;4931734;28;20186;-36
2022/08/03 01:00:59;;;;;;;3.53;2.40;;;;;;;;;;4929162;28;20864;-36
2022/08/03 01:03:25;;;;;;;5.20;2.87;;;;;;;;;;4932990;28;20544;-36
2022/08/03 01:05:51;;;;;;;4.67;2.80;;;;;;;;;;4928624;28;20267;-36
2022/08/03 01:08:31;;;;;;;4.17;2.30;;;;;;;;;;4933055;28;20282;-36
2022/08/03 01:11:11;;;;;;;4.80;2.47;;;;;;;;;;4932145;28;20532;-36
2022/08/03 01:13:37;;;;;;;5.73;2.50;;;;;;;;;;4933828;28;20213;-36
2022/08/03 01:16:26;;;;;;;4.53;2.30;;;;;;;;;;4959466;28;20183;-36
2022/08/03 01:18:58;;;;;;;3.93;2.37;;;;;;;;;;4935015;28;20221;-36
2022/08/03 01:21:36;;;;;;;5.60;2.80;;;;;;;;;;4936894;28;20989;-36
2022/08/03 01:24:13;;;;;;;3.93;2.43;;;;;;;;;;4932317;28;20174;-36
2022/08/03 01:26:52;;;;;;;4.07;2.40;;;;;;;;;;4964359;28;20393;-36
2022/08/03 01:29:21;;;;;;;2.77;2.40;;;;;;;;;;4936423;28;20592;-36
2022/08/03 01:31:50;;;;;;;3.70;2.33;;;;;;;;;;4931033;28;20237;-36
2022/08/03 01:34:19;;;;;;;3.13;2.40;;;;;;;;;;4937977;28;20210;-36
2022/08/03 01:36:56;;;;;;;3.37;2.60;;;;;;;;;;4936834;28;20727;-36
2022/08/03 01:39:23;;;;;;;4.83;2.60;;;;;;;;;;4934995;28;20397;-36
2022/08/03 01:41:58;;;;;;;4.40;2.77;;;;;;;;;;4963577;28;20676;-36
2022/08/03 01:44:25;;;;;;;5.83;2.40;;;;;;;;;;4964476;28;20802;-36
2022/08/03 01:46:52;;;;;;;2.83;2.20;;;;;;;;;;4935052;28;20174;-36
2022/08/03 01:49:18;;;;;;;2.70;2.50;;;;;;;;;;4929673;28;20174;-36
2022/08/03 01:51:48;;;;;;;2.73;2.47;;;;;;;;;;4934219;28;20194;-36
2022/08/03 01:54:14;;;;;;;4.43;2.40;;;;;;;;;;4934417;28;20383;-37
2022/08/03 01:56:42;;;;;;;2.80;2.50;;;;;;;;;;4931931;28;20607;-37
2022/08/03 01:59:09;;;;;;;2.60;2.40;;;;;;;;;;4936641;28;20532;-36
2022/08/03 02:01:37;;;;;;;2.80;2.43;;;;;;;;;;4932755;28;20199;-36
2022/08/03 02:04:03;;;;;;;7.67;3.20;;;;;;;;;;4934894;28;20736;-36
2022/08/03 02:06:31;;;;;;;2.60;2.40;;;;;;;;;;4935210;28;20271;-36
2022/08/03 02:08:59;;;;;;;4.93;2.80;;;;;;;;;;4929970;28;20580;-37
2022/08/03 02:11:25;;;;;;;4.40;2.33;;;;;;;;;;4935798;28;20618;-37
2022/08/03 02:13:51;;;;;;;3.87;2.27;;;;;;;;;;4933631;28;20584;-37
2022/08/03 02:16:18;;;;;;;4.57;2.60;;;;;;;;;;4932580;28;20179;-36
2022/08/03 02:18:45;;;;;;;5.30;2.47;;;;;;;;;;4934858;28;20691;-37
2022/08/03 02:21:11;;;;;;;3.10;2.20;;;;;;;;;;4935593;28;20202;-36
2022/08/03 02:23:38;;;;;;;2.73;2.40;;;;;;;;;;4932505;28;20178;-36
2022/08/03 02:26:06;;;;;;;3.07;2.60;;;;;;;;;;4936083;28;20581;-36
2022/08/03 02:28:35;;;;;;;4.43;2.63;;;;;;;;;;4933802;28;20521;-36
2022/08/03 02:31:03;;;;;;;3.23;2.50;;;;;;;;;;4933972;28;20875;-36
2022/08/03 02:33:34;;;;;;;3.80;2.30;;;;;;;;;;4934537;28;20189;-36
2022/08/03 02:36:00;;;;;;;3.03;2.70;;;;;;;;;;4934362;28;20367;-36
2022/08/03 02:38:28;;;;;;;3.77;2.53;;;;;;;;;;4936053;28;20349;-36
2022/08/03 02:40:55;;;;;;;2.70;2.50;;;;;;;;;;4932515;28;20627;-36
2022/08/03 02:43:22;;;;;;;4.10;2.60;;;;;;;;;;4935906;28;20620;-36
2022/08/03 02:45:49;;;;;;;3.10;2.70;;;;;;;;;;4934158;28;20294;-36
2022/08/03 02:48:17;;;;;;;2.83;2.57;;;;;;;;;;4935179;28;20214;-36
2022/08/03 02:50:44;;;;;;;2.90;2.60;;;;;;;;;;4934408;28;20745;-36
2022/08/03 02:53:12;;;;;;;4.77;2.70;;;;;;;;;;4936699;28;20194;-35
2022/08/03 02:55:39;;;;;;;6.10;3.20;;;;;;;;;;4933188;28;20660;-35
2022/08/03 02:58:06;;;;;;;6.60;3.13;;;;;;;;;;4933725;28;20378;-35
2022/08/03 03:00:33;;;;;;;6.73;3.20;;;;;;;;;;4932989;28;20816;-36
2022/08/03 03:03:00;;;;;;;5.83;3.20;;;;;;;;;;4935611;28;20226;-36
2022/08/03 03:05:27;;;;;;;5.77;3.37;;;;;;;;;;4931746;28;20179;-36
2022/08/03 03:07:54;;;;;;;4.60;4.17;;;;;;;;;;4931701;28;20849;-36
2022/08/03 03:10:21;;;;;;;5.03;3.80;;;;;;;;;;4936916;28;20219;-36
2022/08/03 03:12:50;;;;;;;5.33;4.03;;;;;;;;;;4934030;28;20170;-36
2022/08/03 03:15:17;;;;;;;7.20;4.00;;;;;;;;;;4934583;28;20826;-36
2022/08/03 03:17:43;;;;;;;4.73;4.20;;;;;;;;;;4933068;28;20542;-37
2022/08/03 03:20:10;;;;;;;3.87;3.30;;;;;;;;;;4932307;28;20191;-36
2022/08/03 03:22:36;;;;;;;5.13;3.50;;;;;;;;;;4930909;28;20329;-36
2022/08/03 03:25:03;;;;;;;3.67;3.37;;;;;;;;;;4935383;28;20584;-37
2022/08/03 03:27:30;;;;;;;8.70;4.70;;;;;;;;;;4935135;28;20299;-37
2022/08/03 03:29:57;;;;;;;6.63;3.80;;;;;;;;;;4931186;28;20183;-36
2022/08/03 03:32:23;;;;;;;6.17;4.60;;;;;;;;;;4932602;28;20221;-36
2022/08/03 03:34:49;;;;;;;7.97;4.77;;;;;;;;;;4934259;28;20545;-36
2022/08/03 03:37:15;;;;;;;9.30;5.20;;;;;;;;;;4931770;28;20195;-36
2022/08/03 03:39:41;;;;;;;10.83;5.43;;;;;;;;;;4932132;28;20608;-36
2022/08/03 03:42:08;;;;;;;6.70;5.30;;;;;;;;;;4965310;28;20342;-36
2022/08/03 03:44:34;;;;;;;8.03;5.03;;;;;;;;;;4933739;28;20183;-37
2022/08/03 03:47:00;;;;;;;7.23;4.73;;;;;;;;;;4930545;28;20269;-36
2022/08/03 03:49:26;;;;;;;10.03;4.30;;;;;;;;;;4935544;28;20175;-36
2022/08/03 03:51:56;;;;;;;6.43;4.40;;;;;;;;;;4929465;28;20182;-36
2022/08/03 03:54:22;;;;;;;7.07;4.47;;;;;;;;;;4929011;28;20853;-37
2022/08/03 03:56:48;;;;;;;5.83;4.20;;;;;;;;;;4935522;28;20178;-36
2022/08/03 03:59:14;;;;;;;5.83;3.73;;;;;;;;;;4935300;28;20356;-36
2022/08/03 04:01:41;;;;;;;7.63;4.30;;;;;;;;;;4932775;28;20409;-36
2022/08/03 04:12:24;;;;;;;6.40;3.50;;;;;;;;;;4935305;28;20930;-37
2022/08/03 04:14:51;;;;;;;7.80;4.20;;;;;;;;;;4946514;28;20182;-36
2022/08/03 04:17:18;;;;;;;6.47;4.07;;;;;;;;;;4932627;28;20175;-36
2022/08/03 04:19:49;;;;;;;7.87;4.77;;;;;;;;;;4939545;28;20186;-37
2022/08/03 04:22:18;;;;;;;6.93;4.60;;;;;;;;;;4929026;28;20273;-37
2022/08/03 04:24:47;;;;;;;9.07;5.27;;;;;;;;;;4933820;28;20194;-37
2022/08/03 04:27:14;;;;;;;10.90;6.50;;;;;;;;;;4930134;28;20289;-37
2022/08/03 04:29:43;;;;;;;6.83;6.10;;;;;;;;;;4934414;28;20174;-36
2022/08/03 04:32:10;;;;;;;11.37;7.60;;;;;;;;;;4933756;28;20190;-36
2022/08/03 04:34:36;;;;;;;12.23;7.90;;;;;;;;;;4935694;28;20190;-36
2022/08/03 04:37:05;;;;;;;13.63;9.33;;;;;;;;;;4931015;28;20746;-36
2022/08/03 04:39:32;;;;;;;11.93;8.77;;;;;;;;;;4933972;28;20670;-36
2022/08/03 04:42:01;;;;;;;10.43;8.80;;;;;;;;;;4932424;28;20390;-36
2022/08/03 04:44:28;;;;;;;8.53;7.60;;;;;;;;;;4927073;28;20509;-37
2022/08/03 04:46:55;;;;;;;12.63;8.20;;;;;;;;;;4923564;28;20167;-36
2022/08/03 04:49:21;;;;;;;11.77;9.63;;;;;;;;;;4936231;28;20508;-36
2022/08/03 04:51:48;;;;;;;10.53;8.77;;;;;;;;;;4927613;28;20624;-36
2022/08/03 04:54:17;;;;;;;18.43;12.63;;;;;;;;;;4933289;28;20185;-36
2022/08/03 04:56:43;;;;;;;15.73;11.47;;;;;;;;;;4935417;28;20217;-36
2022/08/03 04:59:10;;;;;;;13.63;11.87;;;;;;;;;;4932944;28;20179;-36
2022/08/03 05:01:36;;;;;;;13.03;11.53;;;;;;;;;;4936130;28;20261;-35
2022/08/03 05:04:03;;;;;;;17.23;12.63;;;;;;;;;;4965391;28;20179;-35
2022/08/03 05:06:29;;;;;;;17.40;12.57;;;;;;;;;;4930494;28;20175;-36
2022/08/03 05:08:55;;;;;;;14.33;11.70;;;;;;;;;;4927941;28;20295;-37
2022/08/03 05:11:21;;;;;;;15.60;12.20;;;;;;;;;;4933684;28;20195;-36
2022/08/03 05:13:47;;;;;;;15.07;11.83;;;;;;;;;;4929280;28;20710;-37
2022/08/03 05:16:14;;;;;;;14.63;12.07;;;;;;;;;;4929489;28;20294;-37
2022/08/03 05:18:41;;;;;;;12.10;10.67;;;;;;;;;;4933387;28;20338;-38
2022/08/03 05:21:08;;;;;;;11.87;9.93;;;;;;;;;;4930930;28;20206;-37
2022/08/03 05:23:34;;;;;;;13.70;10.97;;;;;;;;;;4928645;28;20195;-37
2022/08/03 05:26:00;;;;;;;12.57;10.33;;;;;;;;;;4932681;28;20186;-36
2022/08/03 05:28:26;;;;;;;14.70;10.90;;;;;;;;;;4929281;28;20182;-37
2022/08/03 05:30:53;;;;;;;13.73;10.47;;;;;;;;;;4929275;28;20229;-36
2022/08/03 05:33:19;;;;;;;11.30;9.17;;;;;;;;;;4931182;28;20850;-37
2022/08/03 05:35:45;;;;;;;13.50;10.07;;;;;;;;;;4932341;28;20191;-35
2022/08/03 05:38:11;;;;;;;13.73;9.63;;;;;;;;;;4932181;28;20198;-35
2022/08/03 05:40:37;;;;;;;12.73;10.30;;;;;;;;;;4935474;28;20729;-35
2022/08/03 05:43:03;;;;;;;12.90;9.97;;;;;;;;;;4933996;28;20182;-35
2022/08/03 05:45:29;;;;;;;11.03;9.17;;;;;;;;;;4933223;28;20175;-36
2022/08/03 05:47:55;;;;;;;15.80;10.70;;;;;;;;;;4936868;28;20175;-35
2022/08/03 05:50:21;;;;;;;15.53;10.47;;;;;;;;;;4935815;28;20206;-36
2022/08/03 05:52:48;;;;;;;14.47;10.77;;;;;;;;;;4931570;28;20711;-35
2022/08/03 05:55:14;;;;;;;17.83;10.73;;;;;;;;;;4965918;28;20276;-36
2022/08/03 05:57:40;;;;;;;15.93;10.57;;;;;;;;;;4934851;28;20171;-36
2022/08/03 06:00:07;;;;;;;16.73;11.00;;;;;;;;;;4931920;28;20171;-35
2022/08/03 06:02:33;;;;;;;11.93;10.73;;;;;;;;;;4936460;28;20205;-36
2022/08/03 06:04:59;;;;;;;11.67;9.40;;;;;;;;;;4934450;28;20171;-36
2022/08/03 06:07:26;;;;;;;14.20;10.77;;;;;;;;;;4936243;28;20635;-36
2022/08/03 06:09:52;;;;;;;13.00;10.97;;;;;;;;;;4939519;28;20179;-36
2022/08/03 06:12:18;;;;;;;13.30;10.10;;;;;;;;;;4969695;28;20285;-36
2022/08/03 06:14:44;;;;;;;16.57;10.80;;;;;;;;;;4935766;28;20179;-36
2022/08/03 06:17:10;;;;;;;14.50;10.30;;;;;;;;;;4937398;28;20266;-36
2022/08/03 06:19:36;;;;;;;12.90;10.63;;;;;;;;;;4968765;28;20882;-36
2022/08/03 06:22:02;;;;;;;14.17;10.17;;;;;;;;;;4966124;28;20789;-36
2022/08/03 06:24:28;;;;;;;13.77;10.33;;;;;;;;;;4935626;28;20167;-36
2022/08/03 06:26:54;;;;;;;13.63;9.87;;;;;;;;;;4940671;28;20954;-36
2022/08/03 06:29:21;;;;;;;14.90;9.60;;;;;;;;;;4940186;28;20175;-36
2022/08/03 06:31:47;;;;;;;13.27;10.07;;;;;;;;;;4933263;28;20629;-37
2022/08/03 06:34:13;;;;;;;15.27;9.67;;;;;;;;;;4935505;28;20217;-36
2022/08/03 06:36:39;;;;;;;12.00;8.80;;;;;;;;;;4939060;28;20356;-37
2022/08/03 06:39:06;;;;;;;14.63;7.87;;;;;;;;;;4939542;28;20198;-35
2022/08/03 06:41:32;;;;;;;11.53;8.63;;;;;;;;;;4937935;28;20852;-35
2022/08/03 06:43:58;;;;;;;10.33;8.60;;;;;;;;;;4938687;28;20170;-38
2022/08/03 06:46:24;;;;;;;11.63;8.13;;;;;;;;;;4935413;28;20186;-36
2022/08/03 06:48:51;;;;;;;8.70;7.33;;;;;;;;;;4934947;28;20171;-36
2022/08/03 06:51:17;;;;;;;11.13;7.77;;;;;;;;;;4935103;28;20943;-36
2022/08/03 06:53:43;;;;;;;8.33;7.30;;;;;;;;;;4936879;28;20179;-37
2022/08/03 06:56:09;;;;;;;10.37;7.77;;;;;;;;;;4938401;28;20189;-36
2022/08/03 06:58:36;;;;;;;11.80;8.63;;;;;;;;;;4934850;28;20532;-36
2022/08/03 07:01:02;;;;;;;9.93;8.03;;;;;;;;;;4935713;28;20626;-37
2022/08/03 07:03:28;;;;;;;11.70;7.67;;;;;;;;;;4936205;28;20742;-36
2022/08/03 07:05:54;;;;;;;8.87;7.30;;;;;;;;;;4935365;28;20211;-36
2022/08/03 07:08:20;;;;;;;12.17;7.50;;;;;;;;;;4935612;28;20167;-37
2022/08/03 07:10:46;;;;;;;9.90;7.57;;;;;;;;;;4936803;28;20575;-37
2022/08/03 07:13:12;;;;;;;8.80;7.17;;;;;;;;;;4933981;28;20181;-37
2022/08/03 07:15:40;;;;;;;11.73;7.17;;;;;;;;;;4937538;28;20457;-37
2022/08/03 07:18:06;;;;;;;10.23;7.47;;;;;;;;;;4937700;28;20710;-37
2022/08/03 07:20:32;;;;;;;10.07;7.97;;;;;;;;;;4934868;28;20187;-37
2022/08/03 07:22:58;;;;;;;7.90;7.03;;;;;;;;;;4966660;28;20600;-36
2022/08/03 07:25:24;;;;;;;9.83;7.70;;;;;;;;;;4937047;28;20183;-36
2022/08/03 07:27:50;;;;;;;12.33;9.93;;;;;;;;;;4936002;28;20484;-37
2022/08/03 07:30:17;;;;;;;9.50;8.60;;;;;;;;;;4935466;28;20667;-36
2022/08/03 07:32:43;;;;;;;7.80;7.00;;;;;;;;;;4933470;28;20190;-37
2022/08/03 07:35:10;;;;;;;11.63;9.23;;;;;;;;;;4933486;28;21047;-36
2022/08/03 07:37:36;;;;;;;12.43;9.93;;;;;;;;;;4933614;28;20190;-36
2022/08/03 07:40:04;;;;;;;12.37;9.83;;;;;;;;;;4929013;28;20522;-37
2022/08/03 07:42:30;;;;;;;11.53;9.70;;;;;;;;;;4933277;28;20237;-36
2022/08/03 07:44:57;;;;;;;10.10;8.87;;;;;;;;;;4935570;28;20167;-36
2022/08/03 07:47:24;;;;;;;10.73;9.67;;;;;;;;;;4935240;28;20742;-36
2022/08/03 07:49:50;;;;;;;10.77;8.63;;;;;;;;;;4927367;28;20211;-36
2022/08/03 07:55:01;;;;;;;14.20;9.50;;;;;;;;;;4928964;28;20350;-36
2022/08/03 07:57:27;;;;;;;10.40;8.77;;;;;;;;;;4929717;28;20190;-36
2022/08/03 07:59:53;;;;;;;10.63;8.20;;;;;;;;;;4929156;28;21228;-37
2022/08/03 08:02:19;;;;;;;14.20;9.47;;;;;;;;;;4925351;28;20515;-37
2022/08/03 08:04:45;;;;;;;10.07;7.47;;;;;;;;;;4932375;28;20210;-36
2022/08/03 08:07:12;;;;;;;11.13;8.60;;;;;;;;;;4936875;28;20301;-37
2022/08/03 08:09:38;;;;;;;12.40;8.70;;;;;;;;;;4961105;28;20182;-36
2022/08/03 08:12:04;;;;;;;10.47;8.87;;;;;;;;;;4936672;28;20185;-37
2022/08/03 08:14:30;;;;;;;10.40;6.60;;;;;;;;;;4938729;28;20192;-36
2022/08/03 08:16:56;;;;;;;10.27;6.40;;;;;;;;;;4932235;28;20297;-36
2022/08/03 08:19:22;;;;;;;11.00;7.07;;;;;;;;;;4935533;28;20234;-36
2022/08/03 08:21:48;;;;;;;9.73;7.33;;;;;;;;;;4936254;28;20202;-37
2022/08/03 08:24:14;;;;;;;9.23;6.33;;;;;;;;;;4929889;28;20666;-37
2022/08/03 08:26:41;;;;;;;7.70;5.20;;;;;;;;;;4934371;28;20702;-36
2022/08/03 08:29:07;;;;;;;7.97;5.40;;;;;;;;;;4936723;28;20399;-37
2022/08/03 08:31:33;;;;;;;6.53;5.10;;;;;;;;;;4932070;28;20828;-37
2022/08/03 08:34:04;;;;;;;8.57;4.47;;;;;;;;;;4933747;28;20722;-37
2022/08/03 08:36:30;;;;;;;10.10;6.53;;;;;;;;;;4964757;28;20178;-37
2022/08/03 08:38:57;;;;;;;12.27;7.07;;;;;;;;;;4935681;28;20190;-37
2022/08/03 08:41:23;;;;;;;6.30;4.93;;;;;;;;;;4932169;28;20204;-37
2022/08/03 08:43:49;;;;;;;7.30;4.70;;;;;;;;;;4926305;28;20563;-37
2022/08/03 08:46:15;;;;;;;4.97;3.70;;;;;;;;;;4932100;28;20237;-37
2022/08/03 08:48:43;;;;;;;9.17;3.50;;;;;;;;;;4934427;28;20186;-37
2022/08/03 08:51:11;;;;;;;5.43;3.00;;;;;;;;;;4935952;28;20593;-37
2022/08/03 08:53:39;;;;;;;5.73;3.17;;;;;;;;;;4932724;28;20179;-37
2022/08/03 08:56:07;;;;;;;6.30;3.43;;;;;;;;;;4935127;28;20182;-36
2022/08/03 08:58:41;;;;;;;9.67;4.13;;;;;;;;;;4937540;28;20240;-36
2022/08/03 09:01:07;;;;;;;4.83;3.23;;;;;;;;;;4934329;28;20330;-37
2022/08/03 09:03:34;;;;;;;5.60;2.80;;;;;;;;;;4932431;28;20191;-36
2022/08/03 09:06:00;;;;;;;3.03;2.50;;;;;;;;;;4932281;28;20286;-36
2022/08/03 09:08:28;;;;;;;5.07;2.73;;;;;;;;;;4935562;28;20175;-37
2022/08/03 09:10:54;;;;;;;3.07;2.57;;;;;;;;;;4931452;28;20183;-37
2022/08/03 09:13:20;;;;;;;4.23;2.73;;;;;;;;;;4931009;28;20182;-37
2022/08/03 09:15:46;;;;;;;5.70;3.07;;;;;;;;;;4930448;28;20191;-37
2022/08/03 09:18:14;;;;;;;6.33;2.70;;;;;;;;;;4928449;28;20222;-37
2022/08/03 09:20:40;;;;;;;4.03;2.30;;;;;;;;;;4931800;28;20214;-37
2022/08/03 09:23:08;;;;;;;4.30;2.27;;;;;;;;;;4946215;28;20994;-37
2022/08/03 09:25:39;;;;;;;3.50;2.60;;;;;;;;;;4928391;28;20187;-37
2022/08/03 09:28:23;;;;;;;5.93;2.60;;;;;;;;;;4929217;28;20271;-38
2022/08/03 09:30:59;;;;;;;6.40;2.80;;;;;;;;;;4930846;28;20391;-37
2022/08/03 09:33:25;;;;;;;4.03;2.30;;;;;;;;;;4929801;28;20983;-37
2022/08/03 09:35:54;;;;;;;4.03;2.30;;;;;;;;;;4937864;28;20307;-37
2022/08/03 09:38:27;;;;;;;3.30;2.13;;;;;;;;;;4931920;28;21004;-37
2022/08/03 09:40:54;;;;;;;4.87;2.43;;;;;;;;;;4934250;28;20202;-37
2022/08/03 09:43:20;;;;;;;4.53;2.60;;;;;;;;;;4934691;28;20325;-37
2022/08/03 09:45:46;;;;;;;3.63;2.23;;;;;;;;;;4932928;28;21071;-37
2022/08/03 09:48:29;;;;;;;8.07;2.77;;;;;;;;;;4963111;28;20509;-37
2022/08/03 09:50:56;;;;;;;3.63;2.70;;;;;;;;;;4934325;28;20181;-36
2022/08/03 09:53:23;;;;;;;3.80;2.73;;;;;;;;;;4932330;28;20194;-36
2022/08/03 09:55:52;;;;;;;4.70;2.70;;;;;;;;;;4935361;28;20190;-36
2022/08/03 09:58:20;;;;;;;2.90;2.60;;;;;;;;;;4932686;28;20294;-37
2022/08/03 10:00:53;;;;;;;5.07;2.30;;;;;;;;;;4931820;28;20895;-36
2022/08/03 10:03:19;;;;;;;2.90;1.90;;;;;;;;;;4936819;28;20593;-36
2022/08/03 10:05:45;;;;;;;4.47;2.20;;;;;;;;;;4933666;28;20175;-36
2022/08/03 10:08:15;;;;;;;4.40;2.20;;;;;;;;;;4931201;28;21228;-38
2022/08/03 10:10:43;;;;;;;2.53;1.90;;;;;;;;;;4934296;28;20190;-37
2022/08/03 10:13:11;;;;;;;4.90;1.70;;;;;;;;;;4934333;28;21214;-37
2022/08/03 10:15:38;;;;;;;5.07;1.80;;;;;;;;;;4934115;28;20278;-36
2022/08/03 10:18:05;;;;;;;5.90;1.90;;;;;;;;;;4959674;28;20236;-36
2022/08/03 10:20:32;;;;;;;2.40;1.93;;;;;;;;;;4927532;28;20918;-36
2022/08/03 10:22:59;;;;;;;4.47;2.10;;;;;;;;;;4932766;28;20174;-36
2022/08/03 10:25:25;;;;;;;4.13;2.40;;;;;;;;;;4934282;28;20218;-36
2022/08/03 10:27:53;;;;;;;3.43;2.00;;;;;;;;;;4936853;28;20433;-36
2022/08/03 10:30:19;;;;;;;5.97;1.90;;;;;;;;;;4936961;28;20592;-36
2022/08/03 10:33:17;;;;;;;4.67;2.20;;;;;;;;;;4937703;28;20186;-36
2022/08/03 10:35:47;;;;;;;4.33;1.67;;;;;;;;;;4902176;28;20599;-37
2022/08/03 10:38:17;;;;;;;2.67;2.00;;;;;;;;;;4933298;28;20679;-36
2022/08/03 10:40:43;;;;;;;2.33;2.00;;;;;;;;;;4936194;28;20526;-36
2022/08/03 10:43:12;;;;;;;4.97;1.73;;;;;;;;;;4934329;28;20247;-37
2022/08/03 10:45:42;;;;;;;2.43;2.00;;;;;;;;;;4932269;28;20726;-35
2022/08/03 10:48:09;;;;;;;2.73;2.00;;;;;;;;;;4936262;28;20177;-37
2022/08/03 10:50:39;;;;;;;4.57;1.87;;;;;;;;;;4931820;28;20258;-37
2022/08/03 10:53:06;;;;;;;2.13;1.90;;;;;;;;;;4935710;28;20652;-37
2022/08/03 10:58:37;;;;;;;4.43;1.73;;;;;;;;;;4932822;28;20307;-37
2022/08/03 11:01:08;;;;;;;3.97;1.60;;;;;;;;;;4928282;28;20213;-36
2022/08/03 11:03:54;;;;;;;2.37;1.70;;;;;;;;;;4935258;28;20565;-37
2022/08/03 11:06:21;;;;;;;3.17;1.90;;;;;;;;;;4934024;28;20457;-36
2022/08/03 11:08:48;;;;;;;3.53;1.90;;;;;;;;;;4935243;28;20363;-36
2022/08/03 11:11:17;;;;;;;1.97;1.70;;;;;;;;;;4930668;28;20191;-36
2022/08/03 11:13:58;;;;;;;2.13;1.60;;;;;;;;;;4936388;28;20477;-37
2022/08/03 11:16:26;;;;;;;4.27;1.53;;;;;;;;;;4937927;28;20454;-37
2022/08/03 11:18:58;;;;;;;3.37;1.53;;;;;;;;;;4936980;28;20999;-37
2022/08/03 11:21:43;;;;;;;3.43;1.50;;;;;;;;;;4931477;28;20211;-38
2022/08/03 11:24:09;;;;;;;2.93;1.67;;;;;;;;;;4936738;28;20209;-37
2022/08/03 11:26:35;;;;;;;2.77;1.60;;;;;;;;;;4936301;28;20789;-37
2022/08/03 11:29:20;;;;;;;2.00;1.60;;;;;;;;;;4934274;28;20178;-37
2022/08/03 11:31:46;;;;;;;5.23;1.83;;;;;;;;;;4933978;28;20193;-37
2022/08/03 11:34:13;;;;;;;3.10;1.50;;;;;;;;;;4936597;28;20440;-37
2022/08/03 11:36:58;;;;;;;4.07;1.60;;;;;;;;;;4930988;28;20440;-37
2022/08/03 11:39:54;;;;;;;1.63;1.53;;;;;;;;;;4918740;28;20413;-37
2022/08/03 11:42:23;;;;;;;3.13;1.60;;;;;;;;;;4926621;28;20282;-37
2022/08/03 11:44:53;;;;;;;1.40;1.30;;;;;;;;;;4919426;28;20611;-35
2022/08/03 11:47:24;;;;;;;2.03;1.40;;;;;;;;;;4931504;28;20589;-36
2022/08/03 11:49:51;;;;;;;2.20;1.30;;;;;;;;;;4938661;28;20188;-36
2022/08/03 11:52:18;;;;;;;1.83;1.30;;;;;;;;;;4935017;28;20191;-35
2022/08/03 11:54:44;;;;;;;1.77;1.40;;;;;;;;;;4936483;28;21103;-35
2022/08/03 11:57:10;;;;;;;2.77;1.50;;;;;;;;;;4938337;28;20191;-36
2022/08/03 11:59:37;;;;;;;1.97;1.67;;;;;;;;;;4935242;28;20181;-37
2022/08/03 12:02:15;;;;;;;1.63;1.37;;;;;;;;;;4932758;28;20213;-36
2022/08/03 12:04:59;;;;;;;2.53;1.33;;;;;;;;;;4936293;28;20194;-36
2022/08/03 12:07:29;;;;;;;3.13;1.50;;;;;;;;;;4936319;28;20431;-36
2022/08/03 12:10:08;;;;;;;3.07;1.40;;;;;;;;;;4934002;28;20938;-36
2022/08/03 12:12:34;;;;;;;1.77;1.37;;;;;;;;;;4933909;28;20697;-37
2022/08/03 12:15:01;;;;;;;3.27;1.43;;;;;;;;;;4935773;28;20753;-36
2022/08/03 12:17:38;;;;;;;1.53;1.40;;;;;;;;;;4931966;28;20750;-37
2022/08/03 12:20:06;;;;;;;2.57;1.40;;;;;;;;;;4935931;28;20185;-36
2022/08/03 12:22:33;;;;;;;1.30;1.10;;;;;;;;;;4967076;28;20195;-37
2022/08/03 12:24:59;;;;;;;3.13;1.20;;;;;;;;;;4933136;28;21048;-36
2022/08/03 12:27:28;;;;;;;3.10;1.50;;;;;;;;;;4938526;28;20412;-36
2022/08/03 12:29:55;;;;;;;2.73;1.40;;;;;;;;;;4934237;28;20168;-36
2022/08/03 12:32:21;;;;;;;1.60;1.40;;;;;;;;;;4932832;28;20646;-37
2022/08/03 12:34:47;;;;;;;3.63;1.43;;;;;;;;;;4935614;28;20347;-37
2022/08/03 12:37:14;;;;;;;1.63;1.50;;;;;;;;;;4936540;28;20680;-37
2022/08/03 12:39:40;;;;;;;11.67;2.70;;;;;;;;;;4933872;28;20431;-37
2022/08/03 12:42:07;;;;;;;2.60;1.40;;;;;;;;;;4933916;28;20817;-37
2022/08/03 12:44:35;;;;;;;3.67;1.70;;;;;;;;;;4936097;28;20222;-37
2022/08/03 12:47:02;;;;;;;2.97;1.70;;;;;;;;;;4932258;28;20314;-37
2022/08/03 12:49:28;;;;;;;1.50;1.40;;;;;;;;;;4935720;28;20767;-37
2022/08/03 12:51:55;;;;;;;2.07;1.40;;;;;;;;;;4937921;28;20494;-37
2022/08/03 12:54:23;;;;;;;3.20;1.50;;;;;;;;;;4933136;28;20608;-37
2022/08/03 12:57:01;;;;;;;2.33;1.50;;;;;;;;;;4935588;28;20249;-37
2022/08/03 12:59:29;;;;;;;1.97;1.53;;;;;;;;;;4934732;28;20583;-37
2022/08/03 13:01:55;;;;;;;4.00;1.43;;;;;;;;;;4932270;28;20217;-37
2022/08/03 13:04:27;;;;;;;2.90;1.60;;;;;;;;;;4934756;28;20183;-37
2022/08/03 13:07:01;;;;;;;2.77;1.50;;;;;;;;;;4933797;28;20596;-37
2022/08/03 13:09:28;;;;;;;4.50;1.20;;;;;;;;;;4931534;28;20273;-38
2022/08/03 13:12:12;;;;;;;2.90;1.40;;;;;;;;;;4935050;28;20193;-37
2022/08/03 13:14:38;;;;;;;5.33;1.43;;;;;;;;;;4935958;28;20214;-37
2022/08/03 13:17:05;;;;;;;3.67;1.50;;;;;;;;;;4937808;28;20398;-37
2022/08/03 13:19:35;;;;;;;1.83;1.30;;;;;;;;;;4939971;28;20168;-37
2022/08/03 13:22:01;;;;;;;6.67;1.50;;;;;;;;;;4936714;28;20212;-38
2022/08/03 13:24:27;;;;;;;2.53;1.40;;;;;;;;;;4936317;28;20600;-37
2022/08/03 13:26:53;;;;;;;4.33;1.57;;;;;;;;;;4938698;28;20188;-37
2022/08/03 13:29:20;;;;;;;3.53;1.40;;;;;;;;;;4936339;28;20186;-37
2022/08/03 13:31:46;;;;;;;1.50;1.40;;;;;;;;;;4937304;28;20512;-37
2022/08/03 13:34:12;;;;;;;3.23;1.60;;;;;;;;;;4939283;28;20599;-37
2022/08/03 13:36:38;;;;;;;2.57;1.23;;;;;;;;;;4938542;28;20185;-37
2022/08/03 13:39:04;;;;;;;2.77;1.37;;;;;;;;;;4935725;28;20198;-37
2022/08/03 13:41:30;;;;;;;2.53;1.50;;;;;;;;;;4964611;28;20565;-38
2022/08/03 13:43:57;;;;;;;2.65;1.40;;;;;;;;;;4937653;28;20313;-37
2022/08/03 13:46:25;;;;;;;6.53;1.70;;;;;;;;;;4935086;28;20274;-37
2022/08/03 13:48:51;;;;;;;1.77;1.30;;;;;;;;;;4939694;28;20346;-37
2022/08/03 13:51:17;;;;;;;2.83;1.60;;;;;;;;;;4938701;28;20435;-37
2022/08/03 13:53:44;;;;;;;2.00;1.43;;;;;;;;;;4935814;28;20903;-38
2022/08/03 13:56:10;;;;;;;2.75;1.40;;;;;;;;;;4938482;28;20237;-37
2022/08/03 13:58:36;;;;;;;4.72;1.33;;;;;;;;;;4938020;28;20484;-36
2022/08/03 14:01:02;;;;;;;1.87;1.40;;;;;;;;;;4936260;28;20206;-37
2022/08/03 14:03:28;;;;;;;7.23;1.43;;;;;;;;;;4936075;28;20402;-37
2022/08/03 14:05:54;;;;;;;1.73;1.30;;;;;;;;;;4940143;28;20179;-37
2022/08/03 14:08:20;;;;;;;3.53;1.40;;;;;;;;;;4937412;28;20607;-37
2022/08/03 14:10:46;;;;;;;2.80;1.40;;;;;;;;;;4934956;28;20182;-37
2022/08/03 14:13:14;;;;;;;3.60;1.50;;;;;;;;;;4935969;28;20974;-37
2022/08/03 14:15:41;;;;;;;1.58;1.15;;;;;;;;;;4938219;28;20182;-37
2022/08/03 14:18:07;;;;;;;1.25;1.17;;;;;;;;;;4937970;28;20718;-37
2022/08/03 14:20:33;;;;;;;3.38;1.30;;;;;;;;;;4935216;28;20756;-37
2022/08/03 14:22:59;;;;;;;2.70;1.30;;;;;;;;;;4965408;28;20233;-37
2022/08/03 14:25:26;;;;;;;4.20;1.30;;;;;;;;;;4937274;28;20605;-37
2022/08/03 14:27:52;;;;;;;1.30;1.15;;;;;;;;;;4936668;28;20278;-37
2022/08/03 14:30:18;;;;;;;3.03;1.23;;;;;;;;;;4933148;28;20707;-37
2022/08/03 14:32:45;;;;;;;2.20;1.27;;;;;;;;;;4938237;28;20186;-37
2022/08/03 14:35:11;;;;;;;1.83;1.60;;;;;;;;;;4936259;28;20847;-37
2022/08/03 14:37:37;;;;;;;2.65;1.30;;;;;;;;;;4937786;28;20305;-38
2022/08/03 14:40:04;;;;;;;4.00;1.50;;;;;;;;;;4940551;28;20651;-37
2022/08/03 14:42:30;;;;;;;2.28;1.20;;;;;;;;;;4936120;28;20336;-37
2022/08/03 14:44:56;;;;;;;1.97;1.20;;;;;;;;;;4935237;28;20177;-38
2022/08/03 14:47:22;;;;;;;3.25;1.52;;;;;;;;;;4940342;28;20316;-37
2022/08/03 14:49:48;;;;;;;1.73;1.37;;;;;;;;;;4932540;28;20731;-36
2022/08/03 14:52:14;;;;;;;3.70;1.40;;;;;;;;;;4935652;28;20181;-37
2022/08/03 14:54:40;;;;;;;2.80;1.23;;;;;;;;;;4940604;28;20264;-37